sensor_id;sensor_type;location;lat;lon;timestamp;pressure;altitude;pressure_sealevel;temperature;humidity
6899;BME280;3488;42.616;23.350;2023-05-09T00:00:30;63315.50;;;12.75;100.00
6899;BME280;3488;42.616;23.350;2023-05-09T00:02:58;63323.22;;;12.80;100.00
6899;BME280;3488;42.616;23.350;2023-05-09T00:05:25;63318.03;;;12.75;100.00
6899;BME280;3488;42.616;23.350;2023-05-09T00:07:53;63310.78;;;12.68;100.00
6899;BME280;3488;42.616;23.350;2023-05-09T00:10:22;63301.53;;;12.64;100.00
6899;BME280;3488;42.616;23.350;2023-05-09T00:12:49;63300.97;;;12.61;100.00
6899;BME280;3488;42.616;23.350;2023-05-09T00:15:16;63297.34;;;12.57;100.00
6899;BME280;3488;42.616;23.350;2023-05-09T00:17:45;63300.44;;;12.60;100.00
6899;BME280;3488;42.616;23.350;2023-05-09T00:20:12;63300.00;;;12.65;100.00
6899;BME280;3488;42.616;23.350;2023-05-09T00:22:40;63304.13;;;12.66;100.00
6899;BME280;3488;42.616;23.350;2023-05-09T00:25:08;63312.88;;;12.72;100.00
6899;BME280;3488;42.616;23.350;2023-05-09T00:27:37;63315.50;;;12.77;100.00
6899;BME280;3488;42.616;23.350;2023-05-09T00:30:06;63316.59;;;12.81;100.00
6899;BME280;3488;42.616;23.350;2023-05-09T00:32:33;63324.34;;;12.86;100.00
6899;BME280;3488;42.616;23.350;2023-05-09T00:35:01;63335.22;;;12.97;100.00
6899;BME280;3488;42.616;23.350;2023-05-09T00:37:30;63328.47;;;12.90;100.00
6899;BME280;3488;42.616;23.350;2023-05-09T00:39:58;63328.47;;;12.90;100.00
6899;BME280;3488;42.616;23.350;2023-05-09T00:42:26;63322.25;;;12.84;100.00
6899;BME280;3488;42.616;23.350;2023-05-09T00:44:54;63325.41;;;12.90;100.00
6899;BME280;3488;42.616;23.350;2023-05-09T00:47:26;63333.63;;;12.93;100.00
6899;BME280;3488;42.616;23.350;2023-05-09T00:49:55;63343.97;;;13.00;100.00
6899;BME280;3488;42.616;23.350;2023-05-09T00:52:24;63348.13;;;13.04;100.00
6899;BME280;3488;42.616;23.350;2023-05-09T00:54:52;63351.78;;;13.08;100.00
6899;BME280;3488;42.616;23.350;2023-05-09T00:57:20;63340.94;;;13.02;100.00
6899;BME280;3488;42.616;23.350;2023-05-09T00:59:48;63333.59;;;12.90;100.00
6899;BME280;3488;42.616;23.350;2023-05-09T01:02:17;63315.50;;;12.77;100.00
6899;BME280;3488;42.616;23.350;2023-05-09T01:04:45;63316.47;;;12.73;100.00
6899;BME280;3488;42.616;23.350;2023-05-09T01:07:18;63307.75;;;12.70;100.00
6899;BME280;3488;42.616;23.350;2023-05-09T01:09:55;63281.28;;;12.42;100.00
6899;BME280;3488;42.616;23.350;2023-05-09T01:12:29;63256.94;;;12.21;100.00
6899;BME280;3488;42.616;23.350;2023-05-09T01:15:02;63253.28;;;12.15;100.00
6899;BME280;3488;42.616;23.350;2023-05-09T01:17:39;63250.63;;;12.10;100.00
6899;BME280;3488;42.616;23.350;2023-05-09T01:20:16;63243.97;;;12.08;100.00
6899;BME280;3488;42.616;23.350;2023-05-09T01:22:51;63264.72;;;12.28;100.00
6899;BME280;3488;42.616;23.350;2023-05-09T01:25:41;63280.75;;;12.41;100.00
6899;BME280;3488;42.616;23.350;2023-05-09T01:28:18;63293.19;;;12.53;100.00
6899;BME280;3488;42.616;23.350;2023-05-09T01:30:54;63296.88;;;12.59;100.00
6899;BME280;3488;42.616;23.350;2023-05-09T01:33:22;63305.16;;;12.67;100.00
6899;BME280;3488;42.616;23.350;2023-05-09T01:35:54;63296.94;;;12.64;100.00
6899;BME280;3488;42.616;23.350;2023-05-09T01:38:24;63313.97;;;12.76;100.00
6899;BME280;3488;42.616;23.350;2023-05-09T01:40:53;63322.22;;;12.82;100.00
6899;BME280;3488;42.616;23.350;2023-05-09T01:43:24;63324.81;;;12.84;100.00
6899;BME280;3488;42.616;23.350;2023-05-09T01:45:56;63331.59;;;12.93;100.00
6899;BME280;3488;42.616;23.350;2023-05-09T01:48:26;63321.19;;;12.80;100.00
6899;BME280;3488;42.616;23.350;2023-05-09T01:50:56;63317.53;;;12.77;100.00
6899;BME280;3488;42.616;23.350;2023-05-09T01:53:25;63320.19;;;12.82;100.00
6899;BME280;3488;42.616;23.350;2023-05-09T01:55:55;63323.25;;;12.82;100.00
6899;BME280;3488;42.616;23.350;2023-05-09T01:58:25;63321.75;;;12.84;100.00
6899;BME280;3488;42.616;23.350;2023-05-09T02:00:55;63316.03;;;12.78;100.00
6899;BME280;3488;42.616;23.350;2023-05-09T02:03:23;63327.44;;;12.89;100.00
6899;BME280;3488;42.616;23.350;2023-05-09T02:05:51;63327.97;;;12.90;100.00
6899;BME280;3488;42.616;23.350;2023-05-09T02:08:20;63321.19;;;12.80;100.00
6899;BME280;3488;42.616;23.350;2023-05-09T02:10:47;63308.72;;;12.68;100.00
6899;BME280;3488;42.616;23.350;2023-05-09T02:13:15;63312.28;;;12.67;100.00
6899;BME280;3488;42.616;23.350;2023-05-09T02:15:42;63300.50;;;12.63;100.00
6899;BME280;3488;42.616;23.350;2023-05-09T02:18:13;63298.91;;;12.61;100.00
6899;BME280;3488;42.616;23.350;2023-05-09T02:20:41;63303.03;;;12.63;100.00
6899;BME280;3488;42.616;23.350;2023-05-09T02:23:08;63305.63;;;12.65;100.00
6899;BME280;3488;42.616;23.350;2023-05-09T02:25:35;63300.44;;;12.60;100.00
6899;BME280;3488;42.616;23.350;2023-05-09T02:28:05;63289.59;;;12.52;100.00
6899;BME280;3488;42.616;23.350;2023-05-09T02:30:38;63282.81;;;12.43;100.00
6899;BME280;3488;42.616;23.350;2023-05-09T02:33:07;63291.69;;;12.54;100.00
6899;BME280;3488;42.616;23.350;2023-05-09T02:35:38;63273.47;;;12.34;100.00
6899;BME280;3488;42.616;23.350;2023-05-09T02:38:09;63271.38;;;12.30;100.00
6899;BME280;3488;42.616;23.350;2023-05-09T02:40:37;63263.66;;;12.25;100.00
6899;BME280;3488;42.616;23.350;2023-05-09T02:43:05;63269.31;;;12.28;100.00
6899;BME280;3488;42.616;23.350;2023-05-09T02:45:32;63272.00;;;12.38;100.00
6899;BME280;3488;42.616;23.350;2023-05-09T02:47:59;63278.13;;;12.36;100.00
6899;BME280;3488;42.616;23.350;2023-05-09T02:50:26;63279.72;;;12.40;100.00
6899;BME280;3488;42.616;23.350;2023-05-09T02:52:55;63282.34;;;12.45;100.00
6899;BME280;3488;42.616;23.350;2023-05-09T02:55:22;63256.41;;;12.20;100.00
6899;BME280;3488;42.616;23.350;2023-05-09T02:57:50;63252.22;;;12.14;100.00
6899;BME280;3488;42.616;23.350;2023-05-09T03:00:18;63240.88;;;12.05;100.00
6899;BME280;3488;42.616;23.350;2023-05-09T03:02:46;63237.25;;;12.02;100.00
6899;BME280;3488;42.616;23.350;2023-05-09T03:05:13;63246.03;;;12.08;100.00
6899;BME280;3488;42.616;23.350;2023-05-09T03:07:40;63237.78;;;12.02;100.00
6899;BME280;3488;42.616;23.350;2023-05-09T03:10:09;63233.66;;;12.01;100.00
6899;BME280;3488;42.616;23.350;2023-05-09T03:12:37;63223.78;;;11.89;100.00
6899;BME280;3488;42.616;23.350;2023-05-09T03:15:04;63185.41;;;11.51;100.00
6899;BME280;3488;42.616;23.350;2023-05-09T03:17:32;63211.31;;;11.74;100.00
6899;BME280;3488;42.616;23.350;2023-05-09T03:20:00;63209.19;;;11.70;100.00
6899;BME280;3488;42.616;23.350;2023-05-09T03:22:30;63220.66;;;11.86;100.00
6899;BME280;3488;42.616;23.350;2023-05-09T03:24:57;63216.56;;;11.84;100.00
6899;BME280;3488;42.616;23.350;2023-05-09T03:27:26;63223.25;;;11.88;100.00
6899;BME280;3488;42.616;23.350;2023-05-09T03:29:53;63233.66;;;12.01;100.00
6899;BME280;3488;42.616;23.350;2023-05-09T03:32:20;63231.03;;;11.96;100.00
6899;BME280;3488;42.616;23.350;2023-05-09T03:34:48;63224.28;;;11.89;100.00
6899;BME280;3488;42.616;23.350;2023-05-09T03:37:15;63218.63;;;11.86;100.00
6899;BME280;3488;42.616;23.350;2023-05-09T03:39:42;63216.53;;;11.82;100.00
6899;BME280;3488;42.616;23.350;2023-05-09T03:42:09;63223.19;;;11.83;100.00
6899;BME280;3488;42.616;23.350;2023-05-09T03:44:37;63213.94;;;11.79;100.00
6899;BME280;3488;42.616;23.350;2023-05-09T03:47:04;63218.56;;;11.81;100.00
6899;BME280;3488;42.616;23.350;2023-05-09T03:49:32;63224.28;;;11.89;100.00
6899;BME280;3488;42.616;23.350;2023-05-09T03:51:59;63238.84;;;12.06;100.00
6899;BME280;3488;42.616;23.350;2023-05-09T03:54:27;63237.22;;;11.99;100.00
6899;BME280;3488;42.616;23.350;2023-05-09T03:56:54;63244.50;;;12.09;100.00
6899;BME280;3488;42.616;23.350;2023-05-09T03:59:21;63243.50;;;12.10;100.00
6899;BME280;3488;42.616;23.350;2023-05-09T04:01:50;63248.72;;;12.18;100.00
6899;BME280;3488;42.616;23.350;2023-05-09T04:04:18;63268.22;;;12.24;100.00
6899;BME280;3488;42.616;23.350;2023-05-09T04:06:46;63284.94;;;12.48;100.00
6899;BME280;3488;42.616;23.350;2023-05-09T04:09:13;63286.00;;;12.51;100.00
6899;BME280;3488;42.616;23.350;2023-05-09T04:11:41;63280.22;;;12.41;100.00
6899;BME280;3488;42.616;23.350;2023-05-09T04:14:09;63283.38;;;12.46;100.00
6899;BME280;3488;42.616;23.350;2023-05-09T04:16:35;63311.41;;;12.76;100.00
6899;BME280;3488;42.616;23.350;2023-05-09T04:19:04;63317.06;;;12.79;100.00
6899;BME280;3488;42.616;23.350;2023-05-09T04:21:32;63331.50;;;12.88;100.00
6899;BME280;3488;42.616;23.350;2023-05-09T04:23:59;63339.38;;;13.01;100.00
6899;BME280;3488;42.616;23.350;2023-05-09T04:26:27;63343.44;;;13.00;100.00
6899;BME280;3488;42.616;23.350;2023-05-09T04:28:55;63324.34;;;12.86;100.00
6899;BME280;3488;42.616;23.350;2023-05-09T04:31:23;63343.50;;;13.02;100.00
6899;BME280;3488;42.616;23.350;2023-05-09T04:33:51;63346.59;;;13.03;100.00
6899;BME280;3488;42.616;23.350;2023-05-09T04:36:19;63338.31;;;12.97;100.00
6899;BME280;3488;42.616;23.350;2023-05-09T04:38:47;63342.50;;;13.04;100.00
6899;BME280;3488;42.616;23.350;2023-05-09T04:41:14;63355.41;;;13.11;100.00
6899;BME280;3488;42.616;23.350;2023-05-09T04:43:41;63375.69;;;13.36;100.00
6899;BME280;3488;42.616;23.350;2023-05-09T04:46:09;63395.41;;;13.55;100.00
6899;BME280;3488;42.616;23.350;2023-05-09T04:48:36;63411.47;;;13.68;100.00
6899;BME280;3488;42.616;23.350;2023-05-09T04:51:03;63411.50;;;13.70;100.00
6899;BME280;3488;42.616;23.350;2023-05-09T04:53:33;63434.31;;;13.90;100.00
6899;BME280;3488;42.616;23.350;2023-05-09T04:56:00;63434.84;;;13.93;100.00
6899;BME280;3488;42.616;23.350;2023-05-09T04:58:27;63432.25;;;13.90;100.00
6899;BME280;3488;42.616;23.350;2023-05-09T05:00:56;63450.94;;;14.09;100.00
6899;BME280;3488;42.616;23.350;2023-05-09T05:03:23;63458.22;;;14.16;100.00
6899;BME280;3488;42.616;23.350;2023-05-09T05:05:50;63464.97;;;14.22;100.00
6899;BME280;3488;42.616;23.350;2023-05-09T05:08:17;63485.69;;;14.37;100.00
6899;BME280;3488;42.616;23.350;2023-05-09T05:10:46;63502.88;;;14.59;100.00
6899;BME280;3488;42.616;23.350;2023-05-09T05:13:14;63492.97;;;14.47;100.00
6899;BME280;3488;42.616;23.350;2023-05-09T05:15:41;63503.41;;;14.59;100.00
6899;BME280;3488;42.616;23.350;2023-05-09T05:18:08;63515.91;;;14.74;99.06
6899;BME280;3488;42.616;23.350;2023-05-09T05:20:35;63527.25;;;14.80;99.69
6899;BME280;3488;42.616;23.350;2023-05-09T05:23:03;63536.66;;;14.91;99.67
6899;BME280;3488;42.616;23.350;2023-05-09T05:25:30;63540.81;;;14.95;100.00
6899;BME280;3488;42.616;23.350;2023-05-09T05:27:58;63536.56;;;14.84;100.00
6899;BME280;3488;42.616;23.350;2023-05-09T05:30:29;63520.06;;;14.78;100.00
6899;BME280;3488;42.616;23.350;2023-05-09T05:32:56;63528.78;;;14.79;100.00
6899;BME280;3488;42.616;23.350;2023-05-09T05:35:23;63530.41;;;14.85;100.00
6899;BME280;3488;42.616;23.350;2023-05-09T05:37:52;63525.22;;;14.80;100.00
6899;BME280;3488;42.616;23.350;2023-05-09T05:40:20;63529.34;;;14.82;100.00
6899;BME280;3488;42.616;23.350;2023-05-09T05:42:47;63502.34;;;14.58;100.00
6899;BME280;3488;42.616;23.350;2023-05-09T05:45:16;63540.31;;;14.97;100.00
6899;BME280;3488;42.616;23.350;2023-05-09T05:47:43;63565.19;;;15.17;100.00
6899;BME280;3488;42.616;23.350;2023-05-09T05:50:10;63570.94;;;15.25;100.00
6899;BME280;3488;42.616;23.350;2023-05-09T05:52:37;63547.53;;;14.99;100.00
6899;BME280;3488;42.616;23.350;2023-05-09T05:55:05;63561.56;;;15.13;100.00
6899;BME280;3488;42.616;23.350;2023-05-09T05:57:33;63565.13;;;15.12;100.00
6899;BME280;3488;42.616;23.350;2023-05-09T06:00:02;63530.94;;;14.86;100.00
6899;BME280;3488;42.616;23.350;2023-05-09T06:02:34;63508.59;;;14.64;100.00
6899;BME280;3488;42.616;23.350;2023-05-09T06:05:01;63509.09;;;14.62;100.00
6899;BME280;3488;42.616;23.350;2023-05-09T06:07:29;63511.22;;;14.69;100.00
6899;BME280;3488;42.616;23.350;2023-05-09T06:09:56;63498.22;;;14.54;100.00
6899;BME280;3488;42.616;23.350;2023-05-09T06:12:23;63499.78;;;14.58;100.00
6899;BME280;3488;42.616;23.350;2023-05-09T06:14:50;63492.97;;;14.47;100.00
6899;BME280;3488;42.616;23.350;2023-05-09T06:17:18;63486.25;;;14.43;100.00
6899;BME280;3488;42.616;23.350;2023-05-09T06:19:47;63499.78;;;14.58;100.00
6899;BME280;3488;42.616;23.350;2023-05-09T06:22:14;63491.97;;;14.48;100.00
6899;BME280;3488;42.616;23.350;2023-05-09T06:24:41;63490.94;;;14.47;100.00
6899;BME280;3488;42.616;23.350;2023-05-09T06:27:08;63454.56;;;14.12;100.00
6899;BME280;3488;42.616;23.350;2023-05-09T06:29:36;63461.28;;;14.16;100.00
6899;BME280;3488;42.616;23.350;2023-05-09T06:32:04;63477.34;;;14.27;100.00
6899;BME280;3488;42.616;23.350;2023-05-09T06:34:31;63457.13;;;14.12;100.00
6899;BME280;3488;42.616;23.350;2023-05-09T06:36:59;63454.06;;;14.12;100.00
6899;BME280;3488;42.616;23.350;2023-05-09T06:39:27;63460.78;;;14.16;100.00
6899;BME280;3488;42.616;23.350;2023-05-09T06:41:54;63467.00;;;14.22;100.00
6899;BME280;3488;42.616;23.350;2023-05-09T06:44:21;63504.97;;;14.61;100.00
6899;BME280;3488;42.616;23.350;2023-05-09T06:46:48;63505.50;;;14.61;100.00
6899;BME280;3488;42.616;23.350;2023-05-09T06:49:15;63497.16;;;14.53;100.00
6899;BME280;3488;42.616;23.350;2023-05-09T06:51:42;63481.56;;;14.36;100.00
6899;BME280;3488;42.616;23.350;2023-05-09T06:54:10;63493.50;;;14.47;100.00
6899;BME280;3488;42.616;23.350;2023-05-09T06:56:38;63474.84;;;14.32;100.00
6899;BME280;3488;42.616;23.350;2023-05-09T06:59:06;63469.59;;;14.24;100.00
6899;BME280;3488;42.616;23.350;2023-05-09T07:01:37;63483.59;;;14.35;100.00
6899;BME280;3488;42.616;23.350;2023-05-09T07:04:05;63473.78;;;14.28;100.00
6899;BME280;3488;42.616;23.350;2023-05-09T07:06:32;63484.19;;;14.41;100.00
6899;BME280;3488;42.616;23.350;2023-05-09T07:08:59;63491.50;;;14.50;100.00
6899;BME280;3488;42.616;23.350;2023-05-09T07:11:31;63503.31;;;14.52;100.00
6899;BME280;3488;42.616;23.350;2023-05-09T07:13:59;63522.09;;;14.77;99.93
6899;BME280;3488;42.616;23.350;2023-05-09T07:16:27;63546.47;;;14.96;98.53
6899;BME280;3488;42.616;23.350;2023-05-09T07:18:54;63548.69;;;15.11;99.58
6899;BME280;3488;42.616;23.350;2023-05-09T07:21:21;63580.78;;;15.32;97.99
6899;BME280;3488;42.616;23.350;2023-05-09T07:23:48;63549.66;;;15.06;95.44
6899;BME280;3488;42.616;23.350;2023-05-09T07:26:15;63554.84;;;15.09;93.35
6899;BME280;3488;42.616;23.350;2023-05-09T07:28:43;63529.34;;;14.82;96.35
6899;BME280;3488;42.616;23.350;2023-05-09T07:31:11;63531.44;;;14.84;95.81
6899;BME280;3488;42.616;23.350;2023-05-09T07:33:38;63557.94;;;15.12;96.10
6899;BME280;3488;42.616;23.350;2023-05-09T07:36:05;63586.00;;;15.39;93.64
6899;BME280;3488;42.616;23.350;2023-05-09T07:38:37;63620.84;;;15.73;90.71
6899;BME280;3488;42.616;23.350;2023-05-09T07:41:05;63583.41;;;15.37;92.83
6899;BME280;3488;42.616;23.350;2023-05-09T07:43:32;63594.28;;;15.42;93.46
6899;BME280;3488;42.616;23.350;2023-05-09T07:46:01;63609.34;;;15.57;90.47
6899;BME280;3488;42.616;23.350;2023-05-09T07:48:28;63589.16;;;15.42;88.70
6899;BME280;3488;42.616;23.350;2023-05-09T07:50:55;63606.84;;;15.62;88.66
6899;BME280;3488;42.616;23.350;2023-05-09T07:53:24;63620.88;;;15.75;87.10
6899;BME280;3488;42.616;23.350;2023-05-09T07:55:51;63611.00;;;15.66;87.19
6899;BME280;3488;42.616;23.350;2023-05-09T07:58:18;63620.31;;;15.72;87.10
6899;BME280;3488;42.616;23.350;2023-05-09T08:00:46;63629.72;;;15.84;88.37
6899;BME280;3488;42.616;23.350;2023-05-09T08:03:14;63682.22;;;16.32;87.45
6899;BME280;3488;42.616;23.350;2023-05-09T08:05:41;63717.59;;;16.66;81.80
6899;BME280;3488;42.616;23.350;2023-05-09T08:08:08;63690.53;;;16.40;85.57
6899;BME280;3488;42.616;23.350;2023-05-09T08:10:35;63721.19;;;16.67;83.39
6899;BME280;3488;42.616;23.350;2023-05-09T08:13:02;63730.03;;;16.73;81.21
6899;BME280;3488;42.616;23.350;2023-05-09T08:15:30;63739.91;;;16.83;80.25
6899;BME280;3488;42.616;23.350;2023-05-09T08:17:58;63764.38;;;17.06;77.82
6899;BME280;3488;42.616;23.350;2023-05-09T08:20:26;63735.22;;;16.78;77.41
6899;BME280;3488;42.616;23.350;2023-05-09T08:22:56;63735.81;;;16.84;78.61
6899;BME280;3488;42.616;23.350;2023-05-09T08:25:23;63703.56;;;16.53;79.83
6899;BME280;3488;42.616;23.350;2023-05-09T08:27:50;63663.00;;;16.16;83.98
6899;BME280;3488;42.616;23.350;2023-05-09T08:30:17;63610.94;;;15.61;87.84
6899;BME280;3488;42.616;23.350;2023-05-09T08:32:44;63608.31;;;15.56;92.69
6899;BME280;3488;42.616;23.350;2023-05-09T08:35:12;63609.34;;;15.57;93.69
6899;BME280;3488;42.616;23.350;2023-05-09T08:37:41;63591.19;;;15.42;94.93
6899;BME280;3488;42.616;23.350;2023-05-09T08:40:09;63579.84;;;15.38;94.44
6899;BME280;3488;42.616;23.350;2023-05-09T08:42:36;63544.41;;;14.96;97.83
6899;BME280;3488;42.616;23.350;2023-05-09T08:45:08;63519.44;;;14.70;100.00
6899;BME280;3488;42.616;23.350;2023-05-09T08:47:37;63487.78;;;14.42;100.00
6899;BME280;3488;42.616;23.350;2023-05-09T08:50:06;63450.94;;;14.09;100.00
6899;BME280;3488;42.616;23.350;2023-05-09T08:52:33;63428.09;;;13.86;100.00
6899;BME280;3488;42.616;23.350;2023-05-09T08:55:02;63415.69;;;13.77;100.00
6899;BME280;3488;42.616;23.350;2023-05-09T08:57:31;63418.75;;;13.77;100.00
6899;BME280;3488;42.616;23.350;2023-05-09T08:59:59;63423.44;;;13.82;100.00
6899;BME280;3488;42.616;23.350;2023-05-09T09:02:26;63441.09;;;13.99;100.00
6899;BME280;3488;42.616;23.350;2023-05-09T09:04:53;63457.69;;;14.15;100.00
6899;BME280;3488;42.616;23.350;2023-05-09T09:07:21;63466.50;;;14.24;100.00
6899;BME280;3488;42.616;23.350;2023-05-09T09:09:49;63477.94;;;14.32;100.00
6899;BME280;3488;42.616;23.350;2023-05-09T09:12:21;63470.69;;;14.28;100.00
6899;BME280;3488;42.616;23.350;2023-05-09T09:14:52;63467.03;;;14.24;100.00
6899;BME280;3488;42.616;23.350;2023-05-09T09:17:23;63457.19;;;14.15;100.00
6899;BME280;3488;42.616;23.350;2023-05-09T09:19:54;63474.31;;;14.29;100.00
6899;BME280;3488;42.616;23.350;2023-05-09T09:22:29;63483.19;;;14.42;100.00
6899;BME280;3488;42.616;23.350;2023-05-09T09:24:59;63483.56;;;14.33;100.00
6899;BME280;3488;42.616;23.350;2023-05-09T09:27:28;63498.69;;;14.52;100.00
6899;BME280;3488;42.616;23.350;2023-05-09T09:30:05;63480.06;;;14.39;100.00
6899;BME280;3488;42.616;23.350;2023-05-09T09:32:33;63494.09;;;14.53;100.00
6899;BME280;3488;42.616;23.350;2023-05-09T09:35:03;63478.00;;;14.37;100.00
6899;BME280;3488;42.616;23.350;2023-05-09T09:37:33;63479.50;;;14.36;100.00
6899;BME280;3488;42.616;23.350;2023-05-09T09:40:00;63478.47;;;14.35;100.00
6899;BME280;3488;42.616;23.350;2023-05-09T09:42:39;63466.50;;;14.21;100.00
6899;BME280;3488;42.616;23.350;2023-05-09T09:45:09;63452.56;;;14.15;100.00
6899;BME280;3488;42.616;23.350;2023-05-09T09:47:36;63435.34;;;13.91;100.00
6899;BME280;3488;42.616;23.350;2023-05-09T09:50:09;63413.03;;;13.72;100.00
6899;BME280;3488;42.616;23.350;2023-05-09T09:52:41;63402.16;;;13.61;100.00
6899;BME280;3488;42.616;23.350;2023-05-09T09:55:08;63413.03;;;13.72;100.00
6899;BME280;3488;42.616;23.350;2023-05-09T09:57:37;63385.56;;;13.45;100.00
6899;BME280;3488;42.616;23.350;2023-05-09T10:00:09;63382.44;;;13.42;100.00
6899;BME280;3488;42.616;23.350;2023-05-09T10:02:46;63376.19;;;13.34;100.00
6899;BME280;3488;42.616;23.350;2023-05-09T10:05:18;63399.56;;;13.59;100.00
6899;BME280;3488;42.616;23.350;2023-05-09T10:07:49;63415.13;;;13.74;100.00
6899;BME280;3488;42.616;23.350;2023-05-09T10:10:18;63433.28;;;13.91;100.00
6899;BME280;3488;42.616;23.350;2023-05-09T10:12:49;63456.66;;;14.14;100.00
6899;BME280;3488;42.616;23.350;2023-05-09T10:15:17;63470.16;;;14.27;100.00
6899;BME280;3488;42.616;23.350;2023-05-09T10:17:47;63458.66;;;14.11;100.00
6899;BME280;3488;42.616;23.350;2023-05-09T10:20:16;63468.03;;;14.20;100.00
6899;BME280;3488;42.616;23.350;2023-05-09T10:22:45;63457.78;;;14.20;100.00
6899;BME280;3488;42.616;23.350;2023-05-09T10:25:18;63487.31;;;14.44;100.00
6899;BME280;3488;42.616;23.350;2023-05-09T10:27:48;63500.84;;;14.59;100.00
6899;BME280;3488;42.616;23.350;2023-05-09T10:30:17;63529.41;;;14.87;100.00
6899;BME280;3488;42.616;23.350;2023-05-09T10:32:52;63530.44;;;14.88;100.00
6899;BME280;3488;42.616;23.350;2023-05-09T10:35:23;63555.84;;;15.10;100.00
6899;BME280;3488;42.616;23.350;2023-05-09T10:37:54;63547.06;;;15.04;100.00
6899;BME280;3488;42.616;23.350;2023-05-09T10:40:22;63563.66;;;15.18;100.00
6899;BME280;3488;42.616;23.350;2023-05-09T10:42:50;63553.78;;;15.08;100.00
6899;BME280;3488;42.616;23.350;2023-05-09T10:45:19;63539.75;;;14.94;100.00
6899;BME280;3488;42.616;23.350;2023-05-09T10:47:48;63556.38;;;15.11;100.00
6899;BME280;3488;42.616;23.350;2023-05-09T10:50:16;63557.91;;;15.10;100.00
6899;BME280;3488;42.616;23.350;2023-05-09T10:53:05;63565.75;;;15.20;100.00
6899;BME280;3488;42.616;23.350;2023-05-09T10:55:37;63573.03;;;15.27;100.00
6899;BME280;3488;42.616;23.350;2023-05-09T10:58:20;63591.72;;;15.42;100.00
6899;BME280;3488;42.616;23.350;2023-05-09T11:00:48;63588.00;;;15.36;100.00
6899;BME280;3488;42.616;23.350;2023-05-09T11:03:16;63551.72;;;15.06;100.00
6899;BME280;3488;42.616;23.350;2023-05-09T11:05:45;63533.50;;;14.86;100.00
6899;BME280;3488;42.616;23.350;2023-05-09T11:08:20;63517.38;;;14.70;100.00
6899;BME280;3488;42.616;23.350;2023-05-09T11:10:48;63537.13;;;14.89;100.00
6899;BME280;3488;42.616;23.350;2023-05-09T11:13:20;63556.91;;;15.11;100.00
6899;BME280;3488;42.616;23.350;2023-05-09T11:16:07;63583.38;;;15.34;100.00
6899;BME280;3488;42.616;23.350;2023-05-09T11:18:48;63561.56;;;15.13;100.00
6899;BME280;3488;42.616;23.350;2023-05-09T11:21:16;63565.75;;;15.20;100.00
6899;BME280;3488;42.616;23.350;2023-05-09T11:23:45;63571.47;;;15.25;100.00
6899;BME280;3488;42.616;23.350;2023-05-09T11:26:13;63560.56;;;15.15;100.00
6899;BME280;3488;42.616;23.350;2023-05-09T11:28:51;63542.34;;;14.97;100.00
6899;BME280;3488;42.616;23.350;2023-05-09T11:31:19;63544.97;;;14.99;100.00
6899;BME280;3488;42.616;23.350;2023-05-09T11:33:49;63572.94;;;15.22;100.00
6899;BME280;3488;42.616;23.350;2023-05-09T11:36:27;63592.78;;;15.46;100.00
6899;BME280;3488;42.616;23.350;2023-05-09T11:39:02;63597.41;;;15.45;96.50
6899;BME280;3488;42.616;23.350;2023-05-09T11:41:29;63584.41;;;15.35;94.81
6899;BME280;3488;42.616;23.350;2023-05-09T11:43:58;63573.03;;;15.27;94.78
6899;BME280;3488;42.616;23.350;2023-05-09T11:46:26;63575.09;;;15.29;95.66
6899;BME280;3488;42.616;23.350;2023-05-09T11:48:53;63558.94;;;15.11;94.82
6899;BME280;3488;42.616;23.350;2023-05-09T11:51:21;63552.25;;;15.09;94.26
6899;BME280;3488;42.616;23.350;2023-05-09T11:53:49;63565.75;;;15.20;93.63
6899;BME280;3488;42.616;23.350;2023-05-09T11:56:18;63544.97;;;14.99;95.57
6899;BME280;3488;42.616;23.350;2023-05-09T11:58:50;63519.47;;;14.72;96.76
6899;BME280;3488;42.616;23.350;2023-05-09T12:01:19;63520.53;;;14.73;96.73
6899;BME280;3488;42.616;23.350;2023-05-09T12:03:50;63495.63;;;14.52;98.22
6899;BME280;3488;42.616;23.350;2023-05-09T12:06:21;63485.28;;;14.44;100.00
6899;BME280;3488;42.616;23.350;2023-05-09T12:08:49;63492.03;;;14.51;100.00
6899;BME280;3488;42.616;23.350;2023-05-09T12:11:17;63456.09;;;14.11;100.00
6899;BME280;3488;42.616;23.350;2023-05-09T12:13:45;63463.38;;;14.18;100.00
6899;BME280;3488;42.616;23.350;2023-05-09T12:16:13;63472.78;;;14.30;100.00
6899;BME280;3488;42.616;23.350;2023-05-09T12:18:46;63475.38;;;14.32;100.00
6899;BME280;3488;42.616;23.350;2023-05-09T12:21:15;63467.56;;;14.25;98.54
6899;BME280;3488;42.616;23.350;2023-05-09T12:23:45;63478.97;;;14.33;98.47
6899;BME280;3488;42.616;23.350;2023-05-09T12:26:12;63478.94;;;14.31;98.74
6899;BME280;3488;42.616;23.350;2023-05-09T12:28:39;63474.81;;;14.29;97.82
6899;BME280;3488;42.616;23.350;2023-05-09T12:31:07;63461.28;;;14.16;100.00
6899;BME280;3488;42.616;23.350;2023-05-09T12:33:36;63435.38;;;13.93;100.00
6899;BME280;3488;42.616;23.350;2023-05-09T12:36:07;63435.38;;;13.93;100.00
6899;BME280;3488;42.616;23.350;2023-05-09T12:38:35;63413.03;;;13.69;100.00
6899;BME280;3488;42.616;23.350;2023-05-09T12:41:03;63392.81;;;13.52;100.00
6899;BME280;3488;42.616;23.350;2023-05-09T12:43:31;63392.78;;;13.50;100.00
6899;BME280;3488;42.616;23.350;2023-05-09T12:46:00;63388.19;;;13.50;100.00
6899;BME280;3488;42.616;23.350;2023-05-09T12:48:28;63383.44;;;13.41;100.00
6899;BME280;3488;42.616;23.350;2023-05-09T12:51:01;63382.41;;;13.40;100.00
6899;BME280;3488;42.616;23.350;2023-05-09T12:53:29;63382.97;;;13.43;100.00
6899;BME280;3488;42.616;23.350;2023-05-09T12:56:01;63381.38;;;13.39;100.00
6899;BME280;3488;42.616;23.350;2023-05-09T12:58:29;63351.31;;;13.12;100.00
6899;BME280;3488;42.616;23.350;2023-05-09T13:00:57;63351.88;;;13.15;100.00
6899;BME280;3488;42.616;23.350;2023-05-09T13:03:26;63355.97;;;13.17;100.00
6899;BME280;3488;42.616;23.350;2023-05-09T13:05:57;63350.84;;;13.14;100.00
6899;BME280;3488;42.616;23.350;2023-05-09T13:08:24;63334.75;;;12.99;100.00
6899;BME280;3488;42.616;23.350;2023-05-09T13:10:53;63332.59;;;12.92;100.00